»·PEaware :: N6870P KBUR-KLAS

N6870P :: KBUR-KLAS

FLIGHT INFORMATION

Flight Status: Arrived
Operator: Privately registered:
United States
More flights under this callsign
Pilot: Larry J. (31147)
Aircraft: PIPER PA-24 COMMANCHE
(PA24)
More flights by this aircraft type
Origin: KBUR Bob Hope-Burbank
United States
Destination: KLAS McCarran Intl
United States
More flights between these airports :: More routes between these airports
Route: +VNY3 DAG CRESO4
File this flight plan on PilotEdge
Remarks:
Altitude:
(Current/Filed)
11,000ft
Speed:
(Current/Filed)
185kts
Departed: 17-Oct-20 09:36 AM
Arrived: 17-Oct-20 10:54 AM
Distance/Time
Traveled:
193nm/1:18
Distance/Time
To Go:
Arrived

Flight Plot

Page will automatically refresh every two minutes.

Flight plan parsing failed; only flown route is shown


Map Options




Map Legend


Flown Route
Filed Route
Departure Airport
Arrival Airport
Navaid (VOR, NDB)
Fix

Horizontal Profiles

Position Reports

Time Latitude Longitude Heading Altitude Ground
Speed
17-Oct-20 09:25 34.200209 -118.358854 279 719ft 0kts
17-Oct-20 09:26 34.200209 -118.358854 279 719ft 0kts
17-Oct-20 09:27 34.200209 -118.358854 279 719ft 0kts
17-Oct-20 09:28 34.200209 -118.358854 279 719ft 0kts
17-Oct-20 09:29 34.200209 -118.358854 279 719ft 0kts
17-Oct-20 09:30 34.200213 -118.358883 279 719ft 2kts
17-Oct-20 09:31 34.203208 -118.359096 350 731ft 13kts
17-Oct-20 09:32 34.208269 -118.360518 340 750ft 8kts
17-Oct-20 09:33 34.211591 -118.361448 356 766ft 11kts
17-Oct-20 09:34 34.211705 -118.361436 15 766ft 0kts
17-Oct-20 09:35 34.201508 -118.357572 169 1103ft 114kts
17-Oct-20 09:36 34.171906 -118.368168 223 2727ft 118kts
17-Oct-20 09:37 34.148877 -118.397099 223 4003ft 142kts
17-Oct-20 09:38 34.125205 -118.436775 276 3968ft 153kts
17-Oct-20 09:39 34.157380 -118.452648 351 5970ft 135kts
17-Oct-20 09:40 34.192334 -118.457010 351 8315ft 116kts
17-Oct-20 09:41 34.224468 -118.461542 350 10174ft 121kts
17-Oct-20 09:42 34.262630 -118.465618 1 11007ft 175kts
17-Oct-20 09:43 34.315931 -118.463627 1 11001ft 202kts
17-Oct-20 09:44 34.373012 -118.461046 9 10988ft 207kts
17-Oct-20 09:45 34.412625 -118.413346 50 11000ft 206kts
17-Oct-20 09:46 34.448025 -118.358270 52 10999ft 207kts
17-Oct-20 09:47 34.482840 -118.302753 52 10999ft 207kts
17-Oct-20 09:48 34.517590 -118.247329 52 10999ft 207kts
17-Oct-20 09:49 34.552392 -118.191708 52 10999ft 207kts
17-Oct-20 09:50 34.587133 -118.136099 52 10999ft 207kts
17-Oct-20 09:51 34.621869 -118.080369 52 10999ft 207kts
17-Oct-20 09:52 34.636818 -118.014836 80 11000ft 207kts
17-Oct-20 09:53 34.645057 -117.945529 81 10999ft 207kts
17-Oct-20 09:54 34.652580 -117.876138 81 10999ft 207kts
17-Oct-20 09:55 34.660118 -117.806519 81 10861ft 212kts
17-Oct-20 09:56 34.671625 -117.737548 70 10833ft 208kts
17-Oct-20 09:57 34.688759 -117.670485 71 10834ft 207kts
17-Oct-20 09:58 34.705861 -117.603644 71 10834ft 207kts
17-Oct-20 09:59 34.722949 -117.536775 71 10834ft 207kts
17-Oct-20 10:00 34.740074 -117.469844 71 10834ft 207kts
17-Oct-20 10:01 34.756990 -117.403080 71 10834ft 207kts
17-Oct-20 10:02 34.773972 -117.336119 72 10834ft 207kts
17-Oct-20 10:04 34.790961 -117.268968 72 10834ft 207kts
17-Oct-20 10:05 34.807869 -117.201954 72 10834ft 207kts
17-Oct-20 10:06 34.824706 -117.135048 72 10834ft 207kts
17-Oct-20 10:07 34.841577 -117.067835 72 10834ft 207kts
17-Oct-20 10:08 34.858362 -117.000788 72 10834ft 207kts
17-Oct-20 10:09 34.875086 -116.933810 72 10834ft 207kts
17-Oct-20 10:10 34.891847 -116.866495 72 10834ft 207kts
17-Oct-20 10:11 34.908533 -116.799310 72 10834ft 207kts
17-Oct-20 10:12 34.925153 -116.732242 72 10834ft 207kts
17-Oct-20 10:13 34.941821 -116.664782 72 10834ft 207kts
17-Oct-20 10:14 34.958354 -116.597678 72 10834ft 207kts
17-Oct-20 10:15 34.993578 -116.544590 44 10831ft 207kts
17-Oct-20 10:16 35.029137 -116.489941 65 10828ft 207kts
17-Oct-20 10:17 35.046030 -116.422826 78 10833ft 207kts
17-Oct-20 10:18 35.061312 -116.355467 59 10839ft 207kts
17-Oct-20 10:19 35.091003 -116.295105 60 10833ft 207kts
17-Oct-20 10:20 35.118196 -116.233136 61 10834ft 207kts
17-Oct-20 10:21 35.145303 -116.170985 61 10834ft 207kts
17-Oct-20 10:22 35.172400 -116.108754 61 10834ft 207kts
17-Oct-20 10:22 35.194937 -116.056898 61 10834ft 207kts
17-Oct-20 10:24 35.226447 -115.984277 61 10834ft 207kts
17-Oct-20 10:24 35.248927 -115.932368 61 10834ft 207kts
17-Oct-20 10:26 35.280368 -115.859627 61 10834ft 207kts
17-Oct-20 10:26 35.302799 -115.807634 61 10834ft 207kts
17-Oct-20 10:27 35.337775 -115.752338 46 10833ft 207kts
17-Oct-20 10:28 35.374341 -115.702645 48 10784ft 155kts
17-Oct-20 10:29 35.406550 -115.660635 46 9868ft 206kts
17-Oct-20 10:30 35.445605 -115.608331 46 9834ft 208kts
17-Oct-20 10:31 35.484851 -115.555783 46 9834ft 208kts
17-Oct-20 10:32 35.523868 -115.503492 46 9834ft 208kts
17-Oct-20 10:33 35.562999 -115.450817 47 9834ft 208kts
17-Oct-20 10:34 35.602060 -115.398445 46 9834ft 208kts
17-Oct-20 10:35 35.641156 -115.345901 47 9834ft 208kts
17-Oct-20 10:36 35.676068 -115.298515 47 9791ft 187kts
17-Oct-20 10:37 35.708772 -115.253737 48 8319ft 135kts
17-Oct-20 10:38 35.735283 -115.219290 46 7849ft 183kts
17-Oct-20 10:39 35.772906 -115.168086 47 7835ft 208kts
17-Oct-20 10:40 35.819381 -115.137118 11 7593ft 173kts
17-Oct-20 10:41 35.863609 -115.126123 11 7077ft 156kts
17-Oct-20 10:42 35.904590 -115.115806 11 6832ft 141kts
17-Oct-20 10:43 35.941645 -115.106339 10 6834ft 133kts
17-Oct-20 10:44 35.977458 -115.097126 10 6834ft 131kts
17-Oct-20 10:45 36.013482 -115.087841 10 6834ft 131kts
17-Oct-20 10:46 36.049203 -115.078624 10 6835ft 131kts
17-Oct-20 10:47 36.084925 -115.069399 10 6835ft 131kts
17-Oct-20 10:48 36.130189 -115.057814 10 6837ft 186kts
17-Oct-20 10:49 36.178838 -115.059529 297 6827ft 170kts
17-Oct-20 10:50 36.169224 -115.102253 218 5513ft 124kts
17-Oct-20 10:51 36.141036 -115.131588 209 3470ft 133kts
17-Oct-20 10:52 36.113985 -115.148048 204 2484ft 91kts
17-Oct-20 10:53 36.094192 -115.159464 231 2099ft 12kts
17-Oct-20 10:54 36.089380 -115.163276 272 2126ft 31kts

Navigation Log

Ident Type
Flight plan parsing failed, navigation log unavailable